sensor_id;sensor_type;location;lat;lon;timestamp;pressure;altitude;pressure_sealevel;temperature;humidity
24486;BME280;13449;49.374;8.584;2024-01-30T00:00:47;102019.81;;;0.55;100.00
24486;BME280;13449;49.374;8.584;2024-01-30T00:03:14;102021.53;;;0.55;100.00
24486;BME280;13449;49.374;8.584;2024-01-30T00:05:40;102012.09;;;0.51;100.00
24486;BME280;13449;49.374;8.584;2024-01-30T00:08:07;102012.94;;;0.53;100.00
24486;BME280;13449;49.374;8.584;2024-01-30T00:10:36;102015.56;;;0.48;100.00
24486;BME280;13449;49.374;8.584;2024-01-30T00:13:02;102017.31;;;0.48;100.00
24486;BME280;13449;49.374;8.584;2024-01-30T00:15:29;102018.16;;;0.50;100.00
24486;BME280;13449;49.374;8.584;2024-01-30T00:17:55;102016.44;;;0.46;100.00
24486;BME280;13449;49.374;8.584;2024-01-30T00:20:26;102013.88;;;0.44;100.00
24486;BME280;13449;49.374;8.584;2024-01-30T00:22:53;102015.63;;;0.41;100.00
24486;BME280;13449;49.374;8.584;2024-01-30T00:25:21;102018.22;;;0.41;100.00
24486;BME280;13449;49.374;8.584;2024-01-30T00:27:48;102015.66;;;0.39;100.00
24486;BME280;13449;49.374;8.584;2024-01-30T00:30:15;102014.75;;;0.42;100.00
24486;BME280;13449;49.374;8.584;2024-01-30T00:32:41;102010.44;;;0.42;100.00
24486;BME280;13449;49.374;8.584;2024-01-30T00:35:08;102018.16;;;0.47;100.00
24486;BME280;13449;49.374;8.584;2024-01-30T00:37:36;102014.75;;;0.42;100.00
24486;BME280;13449;49.374;8.584;2024-01-30T00:40:06;102018.25;;;0.39;100.00
24486;BME280;13449;49.374;8.584;2024-01-30T00:42:33;102014.84;;;0.36;100.00
24486;BME280;13449;49.374;8.584;2024-01-30T00:44:59;102020.91;;;0.33;100.00
24486;BME280;13449;49.374;8.584;2024-01-30T00:47:26;102016.59;;;0.34;100.00
24486;BME280;13449;49.374;8.584;2024-01-30T00:49:52;102016.63;;;0.26;100.00
24486;BME280;13449;49.374;8.584;2024-01-30T00:52:19;102020.09;;;0.26;100.00
24486;BME280;13449;49.374;8.584;2024-01-30T00:54:46;102020.81;;;0.41;100.00
24486;BME280;13449;49.374;8.584;2024-01-30T00:57:12;102016.59;;;0.30;100.00
24486;BME280;13449;49.374;8.584;2024-01-30T00:59:39;102010.53;;;0.30;100.00
24486;BME280;13449;49.374;8.584;2024-01-30T01:02:05;102009.72;;;0.26;100.00
24486;BME280;13449;49.374;8.584;2024-01-30T01:04:32;102012.34;;;0.25;100.00
24486;BME280;13449;49.374;8.584;2024-01-30T01:07:01;102020.13;;;0.23;100.00
24486;BME280;13449;49.374;8.584;2024-01-30T01:09:27;102015.84;;;0.19;100.00
24486;BME280;13449;49.374;8.584;2024-01-30T01:11:56;102015.00;;;0.17;100.00
24486;BME280;13449;49.374;8.584;2024-01-30T01:14:22;102009.81;;;0.16;100.00
24486;BME280;13449;49.374;8.584;2024-01-30T01:16:49;102013.28;;;0.13;100.00
24486;BME280;13449;49.374;8.584;2024-01-30T01:19:17;102010.75;;;0.09;100.00
24486;BME280;13449;49.374;8.584;2024-01-30T01:21:44;102012.50;;;0.07;100.00
24486;BME280;13449;49.374;8.584;2024-01-30T01:24:11;102005.63;;;0.04;100.00
24486;BME280;13449;49.374;8.584;2024-01-30T01:26:37;102003.03;;;0.03;100.00
24486;BME280;13449;49.374;8.584;2024-01-30T01:29:04;102003.91;;;0.02;100.00
24486;BME280;13449;49.374;8.584;2024-01-30T01:31:36;101998.75;;;0.02;100.00
24486;BME280;13449;49.374;8.584;2024-01-30T01:34:08;102009.09;;;0.03;100.00
24486;BME280;13449;49.374;8.584;2024-01-30T01:36:35;102007.34;;;0.05;100.00
24486;BME280;13449;49.374;8.584;2024-01-30T01:39:01;102002.09;;;0.10;100.00
24486;BME280;13449;49.374;8.584;2024-01-30T01:41:34;102000.38;;;0.09;100.00
24486;BME280;13449;49.374;8.584;2024-01-30T01:44:03;102001.22;;;0.12;100.00
24486;BME280;13449;49.374;8.584;2024-01-30T01:46:32;102006.41;;;0.12;100.00
24486;BME280;13449;49.374;8.584;2024-01-30T01:49:01;102002.06;;;0.14;100.00
24486;BME280;13449;49.374;8.584;2024-01-30T01:51:29;101997.69;;;0.22;100.00
24486;BME280;13449;49.374;8.584;2024-01-30T01:53:58;102000.22;;;0.25;100.00
24486;BME280;13449;49.374;8.584;2024-01-30T01:56:27;101999.34;;;0.26;100.00
24486;BME280;13449;49.374;8.584;2024-01-30T01:58:55;101988.00;;;0.40;100.00
24486;BME280;13449;49.374;8.584;2024-01-30T02:01:25;101987.91;;;0.49;100.00
24486;BME280;13449;49.374;8.584;2024-01-30T02:03:52;101981.81;;;0.53;100.00
24486;BME280;13449;49.374;8.584;2024-01-30T02:06:19;101989.56;;;0.56;100.00
24486;BME280;13449;49.374;8.584;2024-01-30T02:08:46;101983.34;;;0.69;100.00
24486;BME280;13449;49.374;8.584;2024-01-30T02:11:12;101985.94;;;0.71;100.00
24486;BME280;13449;49.374;8.584;2024-01-30T02:13:40;101985.00;;;0.75;100.00
24486;BME280;13449;49.374;8.584;2024-01-30T02:16:07;101983.34;;;0.69;100.00
24486;BME280;13449;49.374;8.584;2024-01-30T02:18:34;101985.88;;;0.74;100.00
24486;BME280;13449;49.374;8.584;2024-01-30T02:21:04;101998.78;;;0.78;100.00
24486;BME280;13449;49.374;8.584;2024-01-30T02:23:34;101984.97;;;0.78;100.00
24486;BME280;13449;49.374;8.584;2024-01-30T02:26:00;101988.41;;;0.78;100.00
24486;BME280;13449;49.374;8.584;2024-01-30T02:28:27;101996.19;;;0.78;100.00
24486;BME280;13449;49.374;8.584;2024-01-30T02:30:53;101998.78;;;0.78;100.00
24486;BME280;13449;49.374;8.584;2024-01-30T02:33:20;102005.66;;;0.85;100.00
24486;BME280;13449;49.374;8.584;2024-01-30T02:35:48;101999.66;;;0.77;100.00
24486;BME280;13449;49.374;8.584;2024-01-30T02:38:18;101997.03;;;0.82;100.00
24486;BME280;13449;49.374;8.584;2024-01-30T02:40:47;101994.50;;;0.76;100.00
24486;BME280;13449;49.374;8.584;2024-01-30T02:43:13;101989.38;;;0.71;100.00
24486;BME280;13449;49.374;8.584;2024-01-30T02:45:40;101986.81;;;0.68;100.00
24486;BME280;13449;49.374;8.584;2024-01-30T02:48:07;101993.78;;;0.63;100.00
24486;BME280;13449;49.374;8.584;2024-01-30T02:50:33;102000.72;;;0.64;100.00
24486;BME280;13449;49.374;8.584;2024-01-30T02:53:00;101995.53;;;0.61;100.00
24486;BME280;13449;49.374;8.584;2024-01-30T02:55:26;101995.47;;;0.67;100.00
24486;BME280;13449;49.374;8.584;2024-01-30T02:57:53;101997.28;;;0.59;100.00
24486;BME280;13449;49.374;8.584;2024-01-30T03:00:20;101997.34;;;0.56;100.00
24486;BME280;13449;49.374;8.584;2024-01-30T03:02:49;101993.97;;;0.49;100.00
24486;BME280;13449;49.374;8.584;2024-01-30T03:05:17;101984.44;;;0.50;100.00
24486;BME280;13449;49.374;8.584;2024-01-30T03:07:46;101989.69;;;0.44;100.00
24486;BME280;13449;49.374;8.584;2024-01-30T03:10:13;101983.66;;;0.42;100.00
24486;BME280;13449;49.374;8.584;2024-01-30T03:12:40;101981.84;;;0.47;100.00
24486;BME280;13449;49.374;8.584;2024-01-30T03:15:06;101984.44;;;0.51;100.00
24486;BME280;13449;49.374;8.584;2024-01-30T03:17:33;101983.59;;;0.48;100.00
24486;BME280;13449;49.374;8.584;2024-01-30T03:19:59;101982.66;;;0.53;100.00
24486;BME280;13449;49.374;8.584;2024-01-30T03:22:26;101980.91;;;0.55;100.00
24486;BME280;13449;49.374;8.584;2024-01-30T03:24:52;101984.31;;;0.59;100.00
24486;BME280;13449;49.374;8.584;2024-01-30T03:27:19;101982.53;;;0.63;100.00
24486;BME280;13449;49.374;8.584;2024-01-30T03:29:45;101990.31;;;0.67;100.00
24486;BME280;13449;49.374;8.584;2024-01-30T03:32:12;101979.88;;;0.70;100.00
24486;BME280;13449;49.374;8.584;2024-01-30T03:34:39;101983.31;;;0.72;100.00
24486;BME280;13449;49.374;8.584;2024-01-30T03:37:06;101978.09;;;0.74;100.00
24486;BME280;13449;49.374;8.584;2024-01-30T03:39:32;101979.81;;;0.76;100.00
24486;BME280;13449;49.374;8.584;2024-01-30T03:41:59;101978.91;;;0.77;100.00
24486;BME280;13449;49.374;8.584;2024-01-30T03:44:25;101985.00;;;0.76;100.00
24486;BME280;13449;49.374;8.584;2024-01-30T03:46:54;101981.50;;;0.77;100.00
24486;BME280;13449;49.374;8.584;2024-01-30T03:49:20;101981.50;;;0.79;100.00
24486;BME280;13449;49.374;8.584;2024-01-30T03:51:49;101980.66;;;0.77;100.00
24486;BME280;13449;49.374;8.584;2024-01-30T03:54:16;101983.28;;;0.75;100.00
24486;BME280;13449;49.374;8.584;2024-01-30T03:56:42;101982.41;;;0.76;100.00
24486;BME280;13449;49.374;8.584;2024-01-30T03:59:09;101977.19;;;0.78;100.00
24486;BME280;13449;49.374;8.584;2024-01-30T04:01:35;101981.59;;;0.73;100.00
24486;BME280;13449;49.374;8.584;2024-01-30T04:04:04;101979.84;;;0.73;100.00
24486;BME280;13449;49.374;8.584;2024-01-30T04:06:31;101981.59;;;0.71;100.00
24486;BME280;13449;49.374;8.584;2024-01-30T04:08:57;101979.94;;;0.67;100.00
24486;BME280;13449;49.374;8.584;2024-01-30T04:11:26;101974.78;;;0.64;100.00
24486;BME280;13449;49.374;8.584;2024-01-30T04:13:53;101975.66;;;0.62;100.00
24486;BME280;13449;49.374;8.584;2024-01-30T04:16:20;101964.50;;;0.55;100.00
24486;BME280;13449;49.374;8.584;2024-01-30T04:18:48;101981.81;;;0.53;100.00
24486;BME280;13449;49.374;8.584;2024-01-30T04:21:15;101974.94;;;0.50;100.00
24486;BME280;13449;49.374;8.584;2024-01-30T04:23:41;101976.69;;;0.47;100.00
24486;BME280;13449;49.374;8.584;2024-01-30T04:26:08;101975.00;;;0.43;100.00
24486;BME280;13449;49.374;8.584;2024-01-30T04:28:34;101971.56;;;0.41;100.00
24486;BME280;13449;49.374;8.584;2024-01-30T04:31:01;101978.56;;;0.34;100.00
24486;BME280;13449;49.374;8.584;2024-01-30T04:33:27;101978.59;;;0.33;100.00
24486;BME280;13449;49.374;8.584;2024-01-30T04:35:56;101974.25;;;0.33;100.00
24486;BME280;13449;49.374;8.584;2024-01-30T04:38:23;101973.41;;;0.29;100.00
24486;BME280;13449;49.374;8.584;2024-01-30T04:40:49;101970.84;;;0.26;100.00
24486;BME280;13449;49.374;8.584;2024-01-30T04:43:16;101975.22;;;0.21;100.00
24486;BME280;13449;49.374;8.584;2024-01-30T04:45:42;101974.34;;;0.24;100.00
24486;BME280;13449;49.374;8.584;2024-01-30T04:48:09;101981.22;;;0.25;100.00
24486;BME280;13449;49.374;8.584;2024-01-30T04:50:35;101977.81;;;0.21;100.00
24486;BME280;13449;49.374;8.584;2024-01-30T04:53:02;101980.41;;;0.21;100.00
24486;BME280;13449;49.374;8.584;2024-01-30T04:55:29;101977.00;;;0.16;100.00
24486;BME280;13449;49.374;8.584;2024-01-30T04:57:55;101981.13;;;0.36;100.00
24486;BME280;13449;49.374;8.584;2024-01-30T05:00:24;101979.50;;;0.25;100.00
24486;BME280;13449;49.374;8.584;2024-01-30T05:02:51;101983.81;;;0.26;100.00
24486;BME280;13449;49.374;8.584;2024-01-30T05:05:20;101990.66;;;0.30;100.00
24486;BME280;13449;49.374;8.584;2024-01-30T05:07:50;101982.06;;;0.28;100.00
24486;BME280;13449;49.374;8.584;2024-01-30T05:10:17;101986.34;;;0.31;100.00
24486;BME280;13449;49.374;8.584;2024-01-30T05:12:43;101985.56;;;0.24;100.00
24486;BME280;13449;49.374;8.584;2024-01-30T05:15:12;101986.41;;;0.25;100.00
24486;BME280;13449;49.374;8.584;2024-01-30T05:17:41;101985.56;;;0.24;100.00
24486;BME280;13449;49.374;8.584;2024-01-30T05:20:08;101987.28;;;0.25;100.00
24486;BME280;13449;49.374;8.584;2024-01-30T05:22:35;101994.22;;;0.23;100.00
24486;BME280;13449;49.374;8.584;2024-01-30T05:25:03;101995.91;;;0.26;100.00
24486;BME280;13449;49.374;8.584;2024-01-30T05:27:32;101998.56;;;0.21;100.00
24486;BME280;13449;49.374;8.584;2024-01-30T05:29:59;102001.13;;;0.21;100.00
24486;BME280;13449;49.374;8.584;2024-01-30T05:32:25;101995.06;;;0.24;100.00
24486;BME280;13449;49.374;8.584;2024-01-30T05:34:52;101995.88;;;0.27;100.00
24486;BME280;13449;49.374;8.584;2024-01-30T05:37:19;101995.00;;;0.28;100.00
24486;BME280;13449;49.374;8.584;2024-01-30T05:39:46;102006.22;;;0.34;100.00
24486;BME280;13449;49.374;8.584;2024-01-30T05:42:12;102001.91;;;0.33;100.00
24486;BME280;13449;49.374;8.584;2024-01-30T05:44:39;102004.47;;;0.36;100.00
24486;BME280;13449;49.374;8.584;2024-01-30T05:47:05;102000.19;;;0.33;100.00
24486;BME280;13449;49.374;8.584;2024-01-30T05:49:35;102007.94;;;0.32;100.00
24486;BME280;13449;49.374;8.584;2024-01-30T05:52:03;102010.53;;;0.35;100.00
24486;BME280;13449;49.374;8.584;2024-01-30T05:54:30;102008.81;;;0.30;100.00
24486;BME280;13449;49.374;8.584;2024-01-30T05:56:56;102012.25;;;0.36;100.00
24486;BME280;13449;49.374;8.584;2024-01-30T05:59:23;102009.66;;;0.31;100.00
24486;BME280;13449;49.374;8.584;2024-01-30T06:01:49;102006.22;;;0.30;100.00
24486;BME280;13449;49.374;8.584;2024-01-30T06:04:18;102009.72;;;0.26;100.00
24486;BME280;13449;49.374;8.584;2024-01-30T06:06:45;102012.25;;;0.31;100.00
24486;BME280;13449;49.374;8.584;2024-01-30T06:09:12;102015.72;;;0.32;100.00
24486;BME280;13449;49.374;8.584;2024-01-30T06:11:39;102017.47;;;0.28;100.00
24486;BME280;13449;49.374;8.584;2024-01-30T06:14:08;102014.88;;;0.28;100.00
24486;BME280;13449;49.374;8.584;2024-01-30T06:16:34;102014.91;;;0.26;100.00
24486;BME280;13449;49.374;8.584;2024-01-30T06:19:01;102008.88;;;0.24;100.00
24486;BME280;13449;49.374;8.584;2024-01-30T06:21:30;102010.63;;;0.24;100.00
24486;BME280;13449;49.374;8.584;2024-01-30T06:23:58;102019.91;;;0.48;100.00
24486;BME280;13449;49.374;8.584;2024-01-30T06:26:24;102003.63;;;0.30;100.00
24486;BME280;13449;49.374;8.584;2024-01-30T06:28:50;102009.69;;;0.28;100.00
24486;BME280;13449;49.374;8.584;2024-01-30T06:31:17;102001.97;;;0.25;100.00
24486;BME280;13449;49.374;8.584;2024-01-30T06:33:46;102006.28;;;0.24;100.00
24486;BME280;13449;49.374;8.584;2024-01-30T06:36:13;102011.47;;;0.24;100.00
24486;BME280;13449;49.374;8.584;2024-01-30T06:38:40;102012.34;;;0.25;100.00
24486;BME280;13449;49.374;8.584;2024-01-30T06:41:07;102001.09;;;0.24;100.00
24486;BME280;13449;49.374;8.584;2024-01-30T06:43:34;102006.22;;;0.34;100.00
24486;BME280;13449;49.374;8.584;2024-01-30T06:46:01;102007.94;;;0.33;100.00
24486;BME280;13449;49.374;8.584;2024-01-30T06:48:27;102009.66;;;0.34;100.00
24486;BME280;13449;49.374;8.584;2024-01-30T06:50:54;102010.50;;;0.36;100.00
24486;BME280;13449;49.374;8.584;2024-01-30T06:53:20;102007.91;;;0.38;100.00
24486;BME280;13449;49.374;8.584;2024-01-30T06:55:47;102013.94;;;0.38;100.00
24486;BME280;13449;49.374;8.584;2024-01-30T06:58:13;102020.81;;;0.41;100.00
24486;BME280;13449;49.374;8.584;2024-01-30T07:00:42;102018.31;;;0.35;100.00
24486;BME280;13449;49.374;8.584;2024-01-30T07:03:09;102019.81;;;0.54;100.00
24486;BME280;13449;49.374;8.584;2024-01-30T07:05:36;102019.00;;;0.52;100.00
24486;BME280;13449;49.374;8.584;2024-01-30T07:08:02;102025.06;;;0.51;100.00
24486;BME280;13449;49.374;8.584;2024-01-30T07:10:31;102021.59;;;0.52;100.00
24486;BME280;13449;49.374;8.584;2024-01-30T07:12:58;102018.09;;;0.53;100.00
24486;BME280;13449;49.374;8.584;2024-01-30T07:15:26;102020.59;;;0.65;100.00
24486;BME280;13449;49.374;8.584;2024-01-30T07:17:53;102021.47;;;0.61;100.00
24486;BME280;13449;49.374;8.584;2024-01-30T07:20:20;102024.03;;;0.66;100.00
24486;BME280;13449;49.374;8.584;2024-01-30T07:22:47;102027.50;;;0.65;100.00
24486;BME280;13449;49.374;8.584;2024-01-30T07:25:14;102028.31;;;0.68;100.00
24486;BME280;13449;49.374;8.584;2024-01-30T07:27:40;102028.28;;;0.71;100.00
24486;BME280;13449;49.374;8.584;2024-01-30T07:30:07;102023.09;;;0.71;100.00
24486;BME280;13449;49.374;8.584;2024-01-30T07:32:36;102021.31;;;0.76;100.00
24486;BME280;13449;49.374;8.584;2024-01-30T07:35:06;102025.59;;;0.80;100.00
24486;BME280;13449;49.374;8.584;2024-01-30T07:37:35;102031.59;;;0.85;100.00
24486;BME280;13449;49.374;8.584;2024-01-30T07:40:02;102028.06;;;0.89;100.00
24486;BME280;13449;49.374;8.584;2024-01-30T07:42:30;102023.69;;;0.95;100.00
24486;BME280;13449;49.374;8.584;2024-01-30T07:44:57;102032.19;;;1.07;100.00
24486;BME280;13449;49.374;8.584;2024-01-30T07:47:23;102026.09;;;1.11;100.00
24486;BME280;13449;49.374;8.584;2024-01-30T07:49:50;102026.75;;;1.27;100.00
24486;BME280;13449;49.374;8.584;2024-01-30T07:52:20;102025.69;;;1.40;100.00
24486;BME280;13449;49.374;8.584;2024-01-30T07:54:47;102024.84;;;1.38;100.00
24486;BME280;13449;49.374;8.584;2024-01-30T07:57:14;102029.88;;;1.50;100.00
24486;BME280;13449;49.374;8.584;2024-01-30T07:59:44;102023.75;;;1.55;100.00
24486;BME280;13449;49.374;8.584;2024-01-30T08:02:14;102029.59;;;1.69;100.00
24486;BME280;13449;49.374;8.584;2024-01-30T08:04:41;102031.25;;;1.76;100.00
24486;BME280;13449;49.374;8.584;2024-01-30T08:07:08;102044.09;;;1.85;100.00
24486;BME280;13449;49.374;8.584;2024-01-30T08:09:36;102053.94;;;2.19;100.00
24486;BME280;13449;49.374;8.584;2024-01-30T08:12:03;102055.69;;;2.18;100.00
24486;BME280;13449;49.374;8.584;2024-01-30T08:14:32;102061.63;;;2.26;100.00
24486;BME280;13449;49.374;8.584;2024-01-30T08:16:59;102064.88;;;2.39;100.00
24486;BME280;13449;49.374;8.584;2024-01-30T08:19:25;102079.47;;;2.46;100.00
24486;BME280;13449;49.374;8.584;2024-01-30T08:21:52;102080.13;;;2.59;100.00
24486;BME280;13449;49.374;8.584;2024-01-30T08:24:21;102079.84;;;2.74;100.00
24486;BME280;13449;49.374;8.584;2024-01-30T08:26:47;102076.94;;;2.91;100.00
24486;BME280;13449;49.374;8.584;2024-01-30T08:29:14;102096.81;;;2.95;100.00
24486;BME280;13449;49.374;8.584;2024-01-30T08:31:40;102089.66;;;3.06;100.00
24486;BME280;13449;49.374;8.584;2024-01-30T08:34:07;102092.84;;;3.20;100.00
24486;BME280;13449;49.374;8.584;2024-01-30T08:36:34;102090.16;;;3.25;100.00
24486;BME280;13449;49.374;8.584;2024-01-30T08:39:03;102096.84;;;3.37;100.00
24486;BME280;13449;49.374;8.584;2024-01-30T08:41:31;102088.84;;;3.47;100.00
24486;BME280;13449;49.374;8.584;2024-01-30T08:43:58;102099.59;;;3.71;100.00
24486;BME280;13449;49.374;8.584;2024-01-30T08:46:27;102099.47;;;3.75;100.00
24486;BME280;13449;49.374;8.584;2024-01-30T08:48:54;102089.78;;;3.82;100.00
24486;BME280;13449;49.374;8.584;2024-01-30T08:51:25;102091.28;;;3.92;100.00
24486;BME280;13449;49.374;8.584;2024-01-30T08:53:54;102090.25;;;3.99;100.00
24486;BME280;13449;49.374;8.584;2024-01-30T08:56:21;102083.97;;;4.08;100.00
24486;BME280;13449;49.374;8.584;2024-01-30T08:58:49;102077.72;;;4.15;100.00
24486;BME280;13449;49.374;8.584;2024-01-30T09:01:16;102063.53;;;4.25;100.00
24486;BME280;13449;49.374;8.584;2024-01-30T09:03:42;102052.97;;;4.31;100.00
24486;BME280;13449;49.374;8.584;2024-01-30T09:06:12;102052.00;;;4.35;100.00
24486;BME280;13449;49.374;8.584;2024-01-30T09:08:39;102033.56;;;4.41;100.00
24486;BME280;13449;49.374;8.584;2024-01-30T09:11:13;102016.09;;;4.45;100.00
24486;BME280;13449;49.374;8.584;2024-01-30T09:13:39;101993.38;;;4.48;100.00
24486;BME280;13449;49.374;8.584;2024-01-30T09:16:06;101983.63;;;4.55;100.00
24486;BME280;13449;49.374;8.584;2024-01-30T09:18:33;101979.16;;;4.60;100.00
24486;BME280;13449;49.374;8.584;2024-01-30T09:21:03;101979.00;;;4.65;100.00
24486;BME280;13449;49.374;8.584;2024-01-30T09:23:31;101983.16;;;4.72;100.00
24486;BME280;13449;49.374;8.584;2024-01-30T09:25:59;101983.03;;;4.76;100.00
24486;BME280;13449;49.374;8.584;2024-01-30T09:28:25;101974.97;;;4.84;100.00
24486;BME280;13449;49.374;8.584;2024-01-30T09:30:53;101971.38;;;4.88;100.00
24486;BME280;13449;49.374;8.584;2024-01-30T09:33:27;101970.41;;;4.92;100.00
24486;BME280;13449;49.374;8.584;2024-01-30T09:35:55;101971.03;;;5.00;100.00
24486;BME280;13449;49.374;8.584;2024-01-30T09:38:22;101956.91;;;5.07;100.00
24486;BME280;13449;49.374;8.584;2024-01-30T09:40:53;101958.56;;;5.10;100.00
24486;BME280;13449;49.374;8.584;2024-01-30T09:43:23;101969.56;;;5.20;100.00
24486;BME280;13449;49.374;8.584;2024-01-30T09:45:53;101970.31;;;5.25;100.00
24486;BME280;13449;49.374;8.584;2024-01-30T09:48:24;101973.41;;;5.36;100.00
24486;BME280;13449;49.374;8.584;2024-01-30T09:50:57;101970.78;;;5.37;100.00
24486;BME280;13449;49.374;8.584;2024-01-30T09:53:23;101967.00;;;5.46;100.00
24486;BME280;13449;49.374;8.584;2024-01-30T09:55:50;101963.38;;;5.50;100.00
24486;BME280;13449;49.374;8.584;2024-01-30T09:58:17;101969.94;;;5.63;100.00
24486;BME280;13449;49.374;8.584;2024-01-30T10:00:44;101965.13;;;5.78;100.00
24486;BME280;13449;49.374;8.584;2024-01-30T10:03:10;101967.50;;;5.85;100.00
24486;BME280;13449;49.374;8.584;2024-01-30T10:05:40;101963.03;;;5.89;100.00
24486;BME280;13449;49.374;8.584;2024-01-30T10:08:07;101962.66;;;6.01;100.00
24486;BME280;13449;49.374;8.584;2024-01-30T10:10:36;101953.69;;;6.08;100.00
24486;BME280;13449;49.374;8.584;2024-01-30T10:13:04;101951.06;;;6.08;100.00
24486;BME280;13449;49.374;8.584;2024-01-30T10:15:33;101953.38;;;6.17;100.00
24486;BME280;13449;49.374;8.584;2024-01-30T10:18:02;101953.22;;;6.22;100.00
24486;BME280;13449;49.374;8.584;2024-01-30T10:20:28;101952.06;;;6.29;100.00
24486;BME280;13449;49.374;8.584;2024-01-30T10:22:56;101947.69;;;6.29;100.00
24486;BME280;13449;49.374;8.584;2024-01-30T10:25:23;101952.72;;;6.36;100.00
24486;BME280;13449;49.374;8.584;2024-01-30T10:27:53;101946.28;;;6.44;100.00
24486;BME280;13449;49.374;8.584;2024-01-30T10:30:22;101950.53;;;6.48;100.00
24486;BME280;13449;49.374;8.584;2024-01-30T10:32:49;101946.72;;;6.57;100.00
24486;BME280;13449;49.374;8.584;2024-01-30T10:35:16;101947.97;;;6.70;100.00
24486;BME280;13449;49.374;8.584;2024-01-30T10:37:47;101943.25;;;6.80;100.00
24486;BME280;13449;49.374;8.584;2024-01-30T10:40:18;101942.13;;;6.87;100.00
24486;BME280;13449;49.374;8.584;2024-01-30T10:42:52;101934.97;;;6.90;100.00
24486;BME280;13449;49.374;8.584;2024-01-30T10:45:26;101934.66;;;7.00;100.00
24486;BME280;13449;49.374;8.584;2024-01-30T10:47:55;101926.41;;;7.09;100.00
24486;BME280;13449;49.374;8.584;2024-01-30T10:50:25;101933.41;;;7.08;100.00
24486;BME280;13449;49.374;8.584;2024-01-30T10:52:53;101927.00;;;7.17;100.00
24486;BME280;13449;49.374;8.584;2024-01-30T10:55:21;101914.66;;;7.19;100.00
24486;BME280;13449;49.374;8.584;2024-01-30T10:57:50;101910.66;;;7.32;100.00
24486;BME280;13449;49.374;8.584;2024-01-30T11:00:20;101916.44;;;7.40;100.00
24486;BME280;13449;49.374;8.584;2024-01-30T11:02:50;101911.09;;;7.43;100.00
24486;BME280;13449;49.374;8.584;2024-01-30T11:05:24;101920.41;;;7.50;100.00
24486;BME280;13449;49.374;8.584;2024-01-30T11:07:59;101914.00;;;7.58;100.00
24486;BME280;13449;49.374;8.584;2024-01-30T11:10:27;101919.91;;;7.63;100.00
24486;BME280;13449;49.374;8.584;2024-01-30T11:12:54;101917.22;;;7.64;100.00
24486;BME280;13449;49.374;8.584;2024-01-30T11:15:23;101909.28;;;7.66;100.00
24486;BME280;13449;49.374;8.584;2024-01-30T11:17:51;101923.19;;;7.68;100.00
24486;BME280;13449;49.374;8.584;2024-01-30T11:20:27;101917.81;;;7.71;100.00
24486;BME280;13449;49.374;8.584;2024-01-30T11:22:58;101925.03;;;7.86;100.00
24486;BME280;13449;49.374;8.584;2024-01-30T11:25:26;101923.59;;;7.99;100.00
24486;BME280;13449;49.374;8.584;2024-01-30T11:27:54;101916.38;;;8.04;100.00
24486;BME280;13449;49.374;8.584;2024-01-30T11:30:22;101924.94;;;8.09;100.00
24486;BME280;13449;49.374;8.584;2024-01-30T11:35:32;101906.13;;;8.19;100.00
24486;BME280;13449;49.374;8.584;2024-01-30T11:38:00;101906.94;;;8.21;100.00
24486;BME280;13449;49.374;8.584;2024-01-30T11:40:30;101893.75;;;8.22;100.00
24486;BME280;13449;49.374;8.584;2024-01-30T11:42:58;101903.75;;;8.33;100.00
24486;BME280;13449;49.374;8.584;2024-01-30T11:45:28;101900.63;;;8.45;100.00
24486;BME280;13449;49.374;8.584;2024-01-30T11:47:56;101902.78;;;8.56;100.00
24486;BME280;13449;49.374;8.584;2024-01-30T11:50:24;101901.94;;;8.55;100.00
24486;BME280;13449;49.374;8.584;2024-01-30T11:52:54;101907.66;;;8.63;100.00
24486;BME280;13449;49.374;8.584;2024-01-30T11:55:23;101897.31;;;8.60;100.00
24486;BME280;13449;49.374;8.584;2024-01-30T11:57:50;101894.38;;;8.66;100.00
24486;BME280;13449;49.374;8.584;2024-01-30T12:00:18;101889.22;;;8.65;100.00
24486;BME280;13449;49.374;8.584;2024-01-30T12:02:55;101876.66;;;8.72;100.00
24486;BME280;13449;49.374;8.584;2024-01-30T12:05:27;101877.28;;;8.77;100.00
24486;BME280;13449;49.374;8.584;2024-01-30T12:07:58;101874.09;;;8.89;100.00
24486;BME280;13449;49.374;8.584;2024-01-30T12:10:28;101868.47;;;8.96;100.00
24486;BME280;13449;49.374;8.584;2024-01-30T12:12:56;101857.84;;;8.99;100.00
24486;BME280;13449;49.374;8.584;2024-01-30T12:15:24;101858.47;;;9.05;100.00
24486;BME280;13449;49.374;8.584;2024-01-30T12:18:04;101854.44;;;9.15;100.00
24486;BME280;13449;49.374;8.584;2024-01-30T12:20:30;101848.91;;;9.21;100.00
24486;BME280;13449;49.374;8.584;2024-01-30T12:22:57;101843.16;;;9.13;100.00
24486;BME280;13449;49.374;8.584;2024-01-30T12:25:24;101841.47;;;9.29;100.00
24486;BME280;13449;49.374;8.584;2024-01-30T12:27:51;101849.28;;;9.30;100.00
24486;BME280;13449;49.374;8.584;2024-01-30T12:30:19;101837.72;;;9.35;100.00
24486;BME280;13449;49.374;8.584;2024-01-30T12:32:49;101838.56;;;9.52;100.00
24486;BME280;13449;49.374;8.584;2024-01-30T12:35:18;101846.22;;;9.57;100.00
24486;BME280;13449;49.374;8.584;2024-01-30T12:37:47;101835.53;;;9.60;100.00
24486;BME280;13449;49.374;8.584;2024-01-30T12:40:14;101838.63;;;9.68;100.00
24486;BME280;13449;49.374;8.584;2024-01-30T12:42:42;101833.81;;;9.76;100.00
24486;BME280;13449;49.374;8.584;2024-01-30T12:45:10;101837.84;;;9.83;100.00
24486;BME280;13449;49.374;8.584;2024-01-30T12:47:36;101835.47;;;9.79;100.00
24486;BME280;13449;49.374;8.584;2024-01-30T12:50:04;101839.16;;;9.92;100.00
24486;BME280;13449;49.374;8.584;2024-01-30T12:52:31;101839.44;;;10.03;100.00
24486;BME280;13449;49.374;8.584;2024-01-30T12:54:58;101837.50;;;10.07;100.00